createdAt,value
2019-02-08T00:02:58.935Z,22.4
2019-02-08T00:08:04.382Z,22.4
2019-02-08T00:13:09.644Z,22.4
2019-02-08T00:18:15.485Z,22.4
2019-02-08T00:23:28.586Z,22.3
2019-02-08T00:28:24.780Z,22.3
2019-02-08T00:33:30.301Z,22.3
2019-02-08T00:38:36.586Z,22.3
2019-02-08T00:43:42.417Z,22.3
2019-02-08T00:48:48.129Z,22.3
2019-02-08T00:53:53.817Z,22.3
2019-02-08T00:58:59.836Z,22.3
2019-02-08T01:04:05.757Z,22.3
2019-02-08T01:09:11.363Z,22.3
2019-02-08T01:14:17.195Z,22.2
2019-02-08T01:19:22.921Z,22.3
2019-02-08T01:24:28.234Z,22.2
2019-02-08T01:29:34.052Z,22.2
2019-02-08T01:34:39.953Z,22.2
2019-02-08T01:39:45.528Z,22.2
2019-02-08T01:44:51.367Z,22.2
2019-02-08T01:49:57.483Z,22.2
2019-02-08T01:55:02.704Z,22.2
2019-02-08T02:00:10.033Z,22.2
2019-02-08T02:05:15.847Z,22.2
2019-02-08T02:10:21.404Z,22.1
2019-02-08T02:15:26.494Z,22.1
2019-02-08T02:20:31.668Z,22.1
2019-02-08T02:25:37.327Z,22.1
2019-02-08T02:30:43.154Z,22.1
2019-02-08T02:35:48.194Z,22.1
2019-02-08T02:40:53.484Z,22.1
2019-02-08T02:45:59.094Z,22.1
2019-02-08T02:51:04.289Z,22
2019-02-08T02:56:09.661Z,22.1
2019-02-08T03:01:15.482Z,22.1
2019-02-08T03:06:20.677Z,22
2019-02-08T03:11:24.988Z,22
2019-02-08T03:16:30.644Z,22
2019-02-08T03:26:40.257Z,22
2019-02-08T03:31:46.303Z,22
2019-02-08T03:36:51.272Z,22
2019-02-08T03:41:56.546Z,22
2019-02-08T03:47:02.509Z,22
2019-02-08T03:52:08.204Z,22
2019-02-08T03:57:13.373Z,21.9
2019-02-08T04:02:18.565Z,21.9
2019-02-08T04:07:23.903Z,21.9
2019-02-08T04:12:29.837Z,21.9
2019-02-08T04:17:34.938Z,21.9
2019-02-08T04:22:40.034Z,21.9
2019-02-08T04:27:44.891Z,21.9
2019-02-08T04:32:50.900Z,21.9
2019-02-08T04:37:56.753Z,21.9
2019-02-08T04:48:06.750Z,21.9
2019-02-08T04:53:13.006Z,21.9
2019-02-08T04:58:18.408Z,22
2019-02-08T05:03:24.000Z,22.2
2019-02-08T05:08:29.580Z,22.3
2019-02-08T05:13:34.890Z,22.4
2019-02-08T05:18:40.868Z,22.5
2019-02-08T05:23:46.383Z,22.6
2019-02-08T05:28:52.813Z,22.7
2019-02-08T05:33:58.320Z,22.7
2019-02-08T05:39:03.188Z,22.7
2019-02-08T05:44:08.895Z,22.8
2019-02-08T05:49:14.576Z,22.8
2019-02-08T05:54:20.240Z,22.8
2019-02-08T05:59:26.558Z,22.8
2019-02-08T06:04:32.378Z,22.8
2019-02-08T06:09:37.379Z,22.8
2019-02-08T06:14:43.074Z,22.8
2019-02-08T06:19:48.166Z,22.8
2019-02-08T06:24:53.958Z,22.9
2019-02-08T06:29:57.881Z,22.9
2019-02-08T06:35:03.748Z,22.9
2019-02-08T06:40:08.941Z,22.9
2019-02-08T06:45:14.907Z,22.9
2019-02-08T06:50:19.917Z,22.9
2019-02-08T06:55:25.813Z,22.9
2019-02-08T07:00:31.479Z,22.9
2019-02-08T07:05:36.708Z,23
2019-02-08T07:10:43.277Z,20.7
2019-02-08T07:15:48.899Z,20.7
2019-02-08T07:20:53.861Z,21.4
2019-02-08T07:25:59.834Z,21.9
2019-02-08T07:31:05.497Z,22.4
2019-02-08T07:36:11.911Z,22.6
2019-02-08T07:41:17.449Z,22.8
2019-02-08T07:46:23.344Z,22.9
2019-02-08T07:51:28.647Z,23
2019-02-08T07:56:34.153Z,23.1
2019-02-08T08:01:39.640Z,23.1
2019-02-08T08:06:45.485Z,23.2
2019-02-08T08:11:51.280Z,23.2
2019-02-08T08:16:56.558Z,23.2
2019-02-08T08:22:01.664Z,23.2
2019-02-08T08:27:07.217Z,23.2
2019-02-08T08:32:12.140Z,23.2
2019-02-08T08:37:17.409Z,23.2
2019-02-08T08:42:22.481Z,23.2
2019-02-08T08:47:27.602Z,23.2
2019-02-08T08:52:33.234Z,23.2
2019-02-08T08:57:36.954Z,23.2
2019-02-08T09:02:42.036Z,23.1
2019-02-08T09:07:47.117Z,23.1
2019-02-08T09:12:52.114Z,23.1
2019-02-08T09:17:57.097Z,23.1
2019-02-08T09:23:02.997Z,23.1
2019-02-08T09:28:07.995Z,23.1
2019-02-08T09:38:17.737Z,23
2019-02-08T09:43:23.057Z,23.1
2019-02-08T09:48:29.042Z,23.1
2019-02-08T09:53:34.385Z,23.1
2019-02-08T09:58:39.695Z,23
2019-02-08T10:03:45.428Z,23
2019-02-08T10:08:51.076Z,23
2019-02-08T10:13:56.318Z,23
2019-02-08T10:19:01.520Z,22.9
2019-02-08T10:24:07.262Z,22.8
2019-02-08T10:29:13.069Z,22.8
2019-02-08T10:34:18.085Z,22.8
2019-02-08T10:39:23.692Z,22.8
2019-02-08T10:44:29.374Z,22.8
2019-02-08T10:49:35.208Z,22.7
2019-02-08T10:54:40.117Z,22.8
2019-02-08T10:59:45.484Z,22.8
2019-02-08T11:04:51.210Z,22.7
2019-02-08T11:09:56.374Z,22.7
2019-02-08T11:15:01.709Z,22.7
2019-02-08T11:20:07.079Z,22.7
2019-02-08T11:25:12.377Z,22.7
2019-02-08T11:30:17.817Z,22.7
2019-02-08T11:35:22.690Z,22.7
2019-02-08T11:40:28.063Z,22.7
2019-02-08T11:45:33.269Z,22.7
2019-02-08T11:50:38.500Z,22.8
2019-02-08T11:55:44.069Z,22.8
2019-02-08T12:00:49.279Z,22.8
2019-02-08T12:05:55.979Z,22.9
2019-02-08T12:11:01.248Z,22.9
2019-02-08T12:16:06.722Z,23
2019-02-08T12:21:12.344Z,23
2019-02-08T12:26:18.139Z,23.2
2019-02-08T12:31:23.833Z,23.3
2019-02-08T12:36:29.481Z,23.3
2019-02-08T12:41:33.717Z,23.3
2019-02-08T12:46:39.127Z,23.4
2019-02-08T12:56:48.181Z,23.3
2019-02-08T13:01:53.249Z,23.3
2019-02-08T13:06:59.357Z,23.2
2019-02-08T13:12:04.994Z,23.1
2019-02-08T16:00:16.927Z,23.3
2019-02-08T16:05:22.237Z,23.5
2019-02-08T16:10:27.808Z,23.6
2019-02-08T16:15:32.902Z,23.8
2019-02-08T16:20:37.783Z,24
2019-02-08T16:25:43.074Z,24.1
2019-02-08T16:30:48.478Z,23.8
2019-02-08T16:35:53.951Z,23.6
2019-02-08T16:40:59.144Z,23.5
2019-02-08T16:46:05.280Z,23.4
2019-02-08T16:51:11.332Z,23.3
2019-02-08T16:56:17.595Z,23.3
2019-02-08T17:01:23.344Z,23.3
2019-02-08T17:06:29.011Z,23.3
2019-02-08T17:11:34.256Z,23.3
2019-02-08T17:16:41.021Z,23.1
2019-02-08T17:21:46.842Z,23
2019-02-08T17:26:52.778Z,22.9
2019-02-08T17:31:58.571Z,23
2019-02-08T17:37:03.925Z,22.9
2019-02-08T17:42:10.160Z,23
2019-02-08T17:52:20.070Z,23
2019-02-08T17:57:25.277Z,23
2019-02-08T18:02:30.903Z,23.1
2019-02-08T18:07:37.393Z,23.1
2019-02-08T18:12:42.476Z,23.1
2019-02-08T18:17:48.419Z,23
2019-02-08T18:22:54.061Z,23
2019-02-08T18:33:03.571Z,22.9
2019-02-08T18:43:14.236Z,22.9
2019-02-08T18:48:20.417Z,22.8
2019-02-08T18:58:31.580Z,22.9
2019-02-08T19:03:37.291Z,23.1
2019-02-08T19:08:42.792Z,23
2019-02-08T19:13:48.769Z,22.6
2019-02-08T19:18:55.426Z,22.4
2019-02-08T19:24:00.529Z,22.5
2019-02-08T19:29:06.540Z,22.7
2019-02-08T19:34:10.861Z,22.9
2019-02-08T19:39:18.406Z,23
2019-02-08T19:44:24.652Z,23
2019-02-08T19:49:30.600Z,22.9
2019-02-08T19:54:36.630Z,22.8
2019-02-08T19:59:42.240Z,22.8
2019-02-08T20:04:48.054Z,22.8
2019-02-08T20:09:53.710Z,22.8
2019-02-08T20:14:59.297Z,22.9
2019-02-08T20:20:05.095Z,23
2019-02-08T20:25:10.647Z,23
2019-02-08T20:30:15.958Z,23.1
2019-02-08T20:35:21.384Z,23.1
2019-02-08T20:40:27.025Z,23.1
2019-02-08T20:45:35.545Z,23.1
2019-02-08T20:50:41.384Z,23
2019-02-08T20:55:47.072Z,23.1
2019-02-08T21:00:52.875Z,23.1
2019-02-08T21:05:57.892Z,23
2019-02-08T21:11:05.414Z,23
2019-02-08T21:16:10.955Z,23
2019-02-08T21:21:16.336Z,23
2019-02-08T21:26:22.123Z,23
2019-02-08T21:31:27.981Z,23
2019-02-08T21:36:40.716Z,23
2019-02-08T21:46:41.741Z,22.9
2019-02-08T21:56:52.025Z,23
2019-02-08T22:01:57.990Z,23
2019-02-08T22:07:03.706Z,23
2019-02-08T22:12:09.638Z,22.9
2019-02-08T22:17:16.007Z,22.9
2019-02-08T22:22:21.225Z,22.8
2019-02-08T22:27:27.253Z,22.8
2019-02-08T22:32:33.490Z,22.8
2019-02-08T22:42:42.764Z,22.7
2019-02-08T22:47:48.464Z,22.7
2019-02-08T22:52:53.531Z,22.6
2019-02-08T22:57:59.160Z,22.6
2019-02-08T23:03:04.389Z,22.6
2019-02-08T23:08:10.139Z,22.6
2019-02-08T23:13:15.561Z,22.6
2019-02-08T23:18:21.124Z,22.6
2019-02-08T23:23:26.524Z,22.6
2019-02-08T23:28:31.905Z,22.6
2019-02-08T23:33:37.576Z,22.5
2019-02-08T23:38:42.940Z,22.5
2019-02-08T23:43:48.247Z,22.5
2019-02-08T23:48:54.119Z,22.5
2019-02-08T23:54:00.217Z,22.5
2019-02-08T23:59:05.304Z,22.5
